createdAt,value
2019-05-13T00:01:54.123Z,4.87
2019-05-13T00:04:24.345Z,4.07
2019-05-13T00:06:57.770Z,5.60
2019-05-13T00:09:33.911Z,4.83
2019-05-13T00:12:04.596Z,3.30
2019-05-13T00:14:35.716Z,8.60
2019-05-13T00:17:05.727Z,5.17
2019-05-13T00:19:34.904Z,1.70
2019-05-13T00:22:04.153Z,4.33
2019-05-13T00:24:34.331Z,4.17
2019-05-13T00:27:05.541Z,3.47
2019-05-13T00:29:36.161Z,2.03
2019-05-13T00:32:06.538Z,5.07
2019-05-13T00:34:39.201Z,5.90
2019-05-13T00:37:11.734Z,3.83
2019-05-13T00:39:40.137Z,3.33
2019-05-13T00:42:09.734Z,4.37
2019-05-13T00:44:39.218Z,3.73
2019-05-13T00:47:08.417Z,6.33
2019-05-13T00:49:38.185Z,3.40
2019-05-13T00:52:07.686Z,3.97
2019-05-13T00:54:37.675Z,3.47
2019-05-13T00:57:07.409Z,4.47
2019-05-13T00:59:36.580Z,2.13
2019-05-13T01:02:06.024Z,5.30
2019-05-13T01:04:38.007Z,4.10
2019-05-13T01:07:25.365Z,1.93
2019-05-13T01:09:45.765Z,6.43
2019-05-13T01:12:15.264Z,2.60
2019-05-13T01:14:44.585Z,3.07
2019-05-13T01:17:14.297Z,4.07
2019-05-13T01:19:46.185Z,5.03
2019-05-13T01:22:15.353Z,3.17
2019-05-13T01:24:51.270Z,5.37
2019-05-13T01:27:23.931Z,5.87
2019-05-13T01:29:53.603Z,4.00
2019-05-13T01:32:23.829Z,4.17
2019-05-13T01:34:54.001Z,2.87
2019-05-13T01:37:38.823Z,5.50
2019-05-13T01:39:55.236Z,5.33
2019-05-13T01:42:25.467Z,2.97
2019-05-13T01:44:54.677Z,5.90
2019-05-13T01:47:24.221Z,4.67
2019-05-13T01:49:54.325Z,3.97
2019-05-13T01:52:23.847Z,3.20
2019-05-13T01:54:54.350Z,3.67
2019-05-13T01:57:25.127Z,4.57
2019-05-13T01:59:55.425Z,3.93
2019-05-13T02:02:28.130Z,4.93
2019-05-13T02:04:59.611Z,5.13
2019-05-13T02:07:29.855Z,3.40
2019-05-13T02:10:00.419Z,4.30
2019-05-13T02:12:30.343Z,6.70
2019-05-13T02:14:59.803Z,3.27
2019-05-13T02:17:31.102Z,5.07
2019-05-13T02:20:00.312Z,4.70
2019-05-13T02:22:34.389Z,5.57
2019-05-13T02:25:08.004Z,5.10
2019-05-13T02:27:37.937Z,1.87
2019-05-13T02:30:08.067Z,7.23
2019-05-13T02:32:37.792Z,3.20
2019-05-13T02:35:06.998Z,3.93
2019-05-13T02:37:38.207Z,3.90
2019-05-13T02:40:07.739Z,3.53
2019-05-13T02:42:43.680Z,2.97
2019-05-13T02:45:13.407Z,3.67
2019-05-13T02:47:45.331Z,6.17
2019-05-13T02:50:16.378Z,3.90
2019-05-13T02:52:52.963Z,4.07
2019-05-13T02:55:22.396Z,4.40
2019-05-13T02:57:52.842Z,7.33
2019-05-13T03:00:23.668Z,2.43
2019-05-13T03:02:53.208Z,3.03
2019-05-13T03:05:23.018Z,5.97
2019-05-13T03:07:53.227Z,6.60
2019-05-13T03:10:23.297Z,2.87
2019-05-13T03:12:56.024Z,2.90
2019-05-13T03:15:42.836Z,4.70
2019-05-13T03:18:13.474Z,5.60
2019-05-13T03:20:44.204Z,4.77
2019-05-13T03:23:14.042Z,5.17
2019-05-13T03:25:43.238Z,5.10
2019-05-13T03:28:16.282Z,4.80
2019-05-13T03:30:46.484Z,3.30
2019-05-13T03:33:19.925Z,3.20
2019-05-13T03:35:55.847Z,3.57
2019-05-13T03:38:25.067Z,3.20
2019-05-13T03:40:57.118Z,3.77
2019-05-13T03:43:32.316Z,4.03
2019-05-13T03:46:03.572Z,5.13
2019-05-13T03:48:35.681Z,3.93
2019-05-13T03:51:05.232Z,5.50
2019-05-13T03:53:34.688Z,4.37
2019-05-13T03:56:04.370Z,3.10
2019-05-13T03:58:33.795Z,3.53
2019-05-13T04:01:03.313Z,5.00
2019-05-13T04:03:36.923Z,3.63
2019-05-13T04:06:06.810Z,4.40
2019-05-13T04:08:37.388Z,5.63
2019-05-13T04:11:07.842Z,3.83
2019-05-13T04:13:37.337Z,4.23
2019-05-13T04:16:06.547Z,3.00
2019-05-13T04:18:35.980Z,8.17
2019-05-13T04:21:05.474Z,3.90
2019-05-13T04:23:36.031Z,4.63
2019-05-13T04:26:05.707Z,4.10
2019-05-13T04:28:35.476Z,4.30
2019-05-13T04:31:05.203Z,4.43
2019-05-13T04:33:34.958Z,8.40
2019-05-13T04:36:05.080Z,7.57
2019-05-13T04:38:34.794Z,5.27
2019-05-13T04:41:04.337Z,4.33
2019-05-13T04:43:34.717Z,3.73
2019-05-13T04:46:04.502Z,3.03
2019-05-13T04:48:39.108Z,3.13
2019-05-13T04:51:13.207Z,3.77
2019-05-13T04:53:42.784Z,4.70
2019-05-13T04:56:14.094Z,4.10
2019-05-13T04:58:43.848Z,5.83
2019-05-13T05:02:13.296Z,7.60
2019-05-13T05:04:55.413Z,7.07
2019-05-13T05:08:12.012Z,4.23
2019-05-13T05:11:13.054Z,5.73
2019-05-13T05:14:22.420Z,7.17
2019-05-13T05:17:52.188Z,7.50
2019-05-13T05:20:36.883Z,6.17
2019-05-13T05:23:48.022Z,9.40
2019-05-13T05:26:52.162Z,4.43
2019-05-13T05:29:53.829Z,10.47
2019-05-13T05:32:39.018Z,6.77
2019-05-13T05:35:46.835Z,10.30
2019-05-13T05:38:46.138Z,9.50
2019-05-13T05:41:21.458Z,8.27
2019-05-13T05:43:53.898Z,9.53
2019-05-13T05:46:25.757Z,5.90
2019-05-13T05:48:55.439Z,10.47
2019-05-13T05:51:27.097Z,12.77
2019-05-13T05:53:58.034Z,10.67
2019-05-13T05:56:32.480Z,11.97
2019-05-13T05:59:04.047Z,12.13
2019-05-13T06:01:37.192Z,16.67
2019-05-13T06:04:05.719Z,11.33
2019-05-13T06:06:36.022Z,11.00
2019-05-13T06:09:06.542Z,8.27
2019-05-13T06:11:37.290Z,13.90
2019-05-13T06:14:13.587Z,7.80
2019-05-13T06:16:43.359Z,7.40
2019-05-13T06:19:13.548Z,9.07
2019-05-13T06:21:43.078Z,10.20
2019-05-13T06:24:14.774Z,10.93
2019-05-13T06:26:44.514Z,10.37
2019-05-13T06:29:18.030Z,7.00
2019-05-13T06:31:48.331Z,9.13
2019-05-13T06:34:18.165Z,9.50
2019-05-13T06:36:47.373Z,9.57
2019-05-13T06:39:17.295Z,17.03
2019-05-13T06:41:46.764Z,8.27
2019-05-13T06:44:16.518Z,10.87
2019-05-13T06:46:46.410Z,10.07
2019-05-13T06:49:17.725Z,13.40
2019-05-13T06:51:49.119Z,10.10
2019-05-13T06:54:18.319Z,6.03
2019-05-13T06:56:48.027Z,9.00
2019-05-13T06:59:17.192Z,10.37
2019-05-13T07:01:47.736Z,10.67
2019-05-13T07:04:18.053Z,7.50
2019-05-13T07:06:48.452Z,7.13
2019-05-13T07:09:18.174Z,6.90
2019-05-13T07:11:47.768Z,7.00
2019-05-13T07:14:16.925Z,8.30
2019-05-13T07:16:46.678Z,9.33
2019-05-13T07:19:16.090Z,9.87
2019-05-13T07:21:45.837Z,8.63
2019-05-13T07:24:15.654Z,10.77
2019-05-13T07:26:45.410Z,9.37
2019-05-13T07:29:15.483Z,7.37
2019-05-13T07:31:49.025Z,12.30
2019-05-13T07:34:24.090Z,10.17
2019-05-13T07:37:04.766Z,4.83
2019-05-13T07:39:33.925Z,6.07
2019-05-13T07:42:05.941Z,6.50
2019-05-13T07:44:34.961Z,8.77
2019-05-13T07:47:04.444Z,5.70
2019-05-13T07:49:33.738Z,7.23
2019-05-13T07:52:06.379Z,6.13
2019-05-13T07:54:36.067Z,5.80
2019-05-13T07:57:08.366Z,5.80
2019-05-13T07:59:46.537Z,4.80
2019-05-13T08:02:17.087Z,9.23
2019-05-13T08:04:52.983Z,8.63
2019-05-13T08:07:25.867Z,10.33
2019-05-13T08:10:00.128Z,6.90
2019-05-13T08:12:31.912Z,8.27
2019-05-13T08:15:03.466Z,11.10
2019-05-13T08:17:33.070Z,6.40
2019-05-13T08:20:13.097Z,9.83
2019-05-13T08:22:42.680Z,5.43
2019-05-13T08:25:13.042Z,5.27
2019-05-13T08:27:42.520Z,4.77
2019-05-13T08:30:13.029Z,10.00
2019-05-13T08:32:42.591Z,6.70
2019-05-13T08:35:13.499Z,6.47
2019-05-13T08:37:44.527Z,8.93
2019-05-13T08:40:19.949Z,5.87
2019-05-13T08:42:47.494Z,6.40
2019-05-13T08:45:17.065Z,7.73
2019-05-13T08:47:46.270Z,7.10
2019-05-13T08:50:15.698Z,4.60
2019-05-13T08:52:44.911Z,3.90
2019-05-13T08:55:16.264Z,6.97
2019-05-13T08:57:45.939Z,8.57
2019-05-13T09:00:18.919Z,7.33
2019-05-13T09:02:48.360Z,5.87
2019-05-13T09:05:17.924Z,7.07
2019-05-13T09:07:51.747Z,4.93
2019-05-13T09:10:22.846Z,5.00
2019-05-13T09:12:52.333Z,5.37
2019-05-13T09:15:22.466Z,4.83
2019-05-13T09:17:54.317Z,5.03
2019-05-13T09:20:25.224Z,5.47
2019-05-13T09:22:55.055Z,4.67
2019-05-13T09:25:24.750Z,5.07
2019-05-13T09:27:58.391Z,6.37
2019-05-13T09:30:27.610Z,3.77
2019-05-13T09:32:57.529Z,3.17
2019-05-13T09:35:26.719Z,4.67
2019-05-13T09:38:03.234Z,3.23
2019-05-13T09:40:31.607Z,3.40
2019-05-13T09:43:02.585Z,3.33
2019-05-13T09:45:33.485Z,6.67
2019-05-13T09:48:02.761Z,6.33
2019-05-13T09:50:35.935Z,5.57
2019-05-13T09:53:02.898Z,2.20
2019-05-13T09:55:32.671Z,4.30
2019-05-13T09:58:02.632Z,3.07
2019-05-13T10:00:32.592Z,4.10
2019-05-13T10:03:02.248Z,3.27
2019-05-13T10:05:31.994Z,6.43
2019-05-13T10:08:02.456Z,3.00
2019-05-13T10:10:32.113Z,3.80
2019-05-13T10:13:09.348Z,3.23
2019-05-13T10:15:32.959Z,4.03
2019-05-13T10:18:02.506Z,2.57
2019-05-13T10:20:44.590Z,4.10
2019-05-13T10:23:15.171Z,3.00
2019-05-13T10:25:46.102Z,1.83
2019-05-13T10:28:15.663Z,3.20
2019-05-13T10:30:46.296Z,3.63
2019-05-13T10:33:15.575Z,3.60
2019-05-13T10:35:45.416Z,3.33
2019-05-13T10:38:15.145Z,3.53
2019-05-13T10:40:45.124Z,3.77
2019-05-13T10:43:29.917Z,3.17
2019-05-13T10:45:46.581Z,2.67
2019-05-13T10:48:22.007Z,1.73
2019-05-13T10:50:55.509Z,3.53
2019-05-13T10:53:25.277Z,1.83
2019-05-13T10:55:55.503Z,1.47
2019-05-13T10:58:24.912Z,2.63
2019-05-13T11:01:02.713Z,2.80
2019-05-13T11:03:34.557Z,2.80
2019-05-13T11:06:04.724Z,3.03
2019-05-13T11:08:34.210Z,2.80
2019-05-13T11:11:10.222Z,4.77
2019-05-13T11:13:58.043Z,3.57
2019-05-13T11:16:13.715Z,2.70
2019-05-13T11:18:47.518Z,3.07
2019-05-13T11:21:16.773Z,3.07
2019-05-13T11:23:47.307Z,2.47
2019-05-13T11:26:17.052Z,2.57
2019-05-13T11:28:46.728Z,2.27
2019-05-13T11:31:15.995Z,1.43
2019-05-13T11:33:45.273Z,3.40
2019-05-13T11:36:19.114Z,1.80
2019-05-13T11:38:47.518Z,2.83
2019-05-13T11:41:17.452Z,3.80
2019-05-13T11:44:09.275Z,2.43
2019-05-13T11:46:25.624Z,2.13
2019-05-13T11:49:07.013Z,3.33
2019-05-13T11:51:36.196Z,2.50
2019-05-13T11:54:06.936Z,3.07
2019-05-13T11:56:36.841Z,3.23
2019-05-13T11:59:08.311Z,2.57
2019-05-13T12:01:38.516Z,4.17
2019-05-13T12:04:10.090Z,2.90
2019-05-13T12:06:47.893Z,2.70
2019-05-13T12:09:13.192Z,4.87
2019-05-13T12:11:45.013Z,3.83
2019-05-13T12:14:39.178Z,4.20
2019-05-13T12:16:52.396Z,2.83
2019-05-13T12:19:24.411Z,4.33
2019-05-13T12:21:55.526Z,4.13
2019-05-13T12:24:26.272Z,3.43
2019-05-13T12:26:57.821Z,6.87
2019-05-13T12:29:27.019Z,4.23
2019-05-13T12:31:57.874Z,4.23
2019-05-13T12:34:27.119Z,4.00
2019-05-13T12:36:56.312Z,2.17
2019-05-13T12:39:26.840Z,1.67
2019-05-13T12:41:57.338Z,4.00
2019-05-13T12:44:26.810Z,2.43
2019-05-13T12:46:56.698Z,2.80
2019-05-13T12:49:43.453Z,3.17
2019-05-13T12:52:13.452Z,3.30
2019-05-13T12:54:44.551Z,2.67
2019-05-13T12:57:17.910Z,5.03
2019-05-13T12:59:47.204Z,3.20
2019-05-13T13:02:18.682Z,2.47
2019-05-13T13:05:08.793Z,2.13
2019-05-13T13:07:19.556Z,4.20
2019-05-13T13:09:53.551Z,3.83
2019-05-13T13:12:29.591Z,2.90
2019-05-13T13:14:54.584Z,2.13
2019-05-13T13:17:24.424Z,3.60
2019-05-13T13:20:09.118Z,2.67
2019-05-13T13:22:35.632Z,4.57
2019-05-13T13:25:13.015Z,2.93
2019-05-13T13:28:09.824Z,3.80
2019-05-13T13:30:14.489Z,3.43
2019-05-13T13:32:45.401Z,2.80
2019-05-13T13:35:15.785Z,4.20
2019-05-13T13:37:46.241Z,4.47
2019-05-13T13:40:24.489Z,3.47
2019-05-13T13:42:47.242Z,3.63
2019-05-13T13:45:16.854Z,3.03
2019-05-13T13:47:46.306Z,2.10
2019-05-13T13:50:16.044Z,3.77
2019-05-13T13:52:45.968Z,2.97
2019-05-13T13:55:16.696Z,5.87
2019-05-13T13:57:46.578Z,2.50
2019-05-13T14:00:32.818Z,3.50
2019-05-13T14:02:47.072Z,3.57
2019-05-13T14:05:16.815Z,3.63
2019-05-13T14:07:46.270Z,1.67
2019-05-13T14:10:16.374Z,4.07
2019-05-13T14:12:46.785Z,2.67
2019-05-13T14:15:17.752Z,4.67
2019-05-13T14:17:47.559Z,3.17
2019-05-13T14:20:17.126Z,5.23
2019-05-13T14:22:46.275Z,3.00
2019-05-13T14:25:18.019Z,1.97
2019-05-13T14:27:47.179Z,2.97
2019-05-13T14:30:16.673Z,3.40
2019-05-13T14:32:47.285Z,3.20
2019-05-13T14:35:16.465Z,4.60
2019-05-13T14:37:45.655Z,2.50
2019-05-13T14:40:15.068Z,3.97
2019-05-13T14:42:44.229Z,2.80
2019-05-13T14:45:13.488Z,5.13
2019-05-13T14:47:43.232Z,4.80
2019-05-13T14:50:13.192Z,3.50
2019-05-13T14:52:42.405Z,5.23
2019-05-13T14:55:11.696Z,4.20
2019-05-13T14:57:41.933Z,5.27
2019-05-13T15:00:11.915Z,3.00
2019-05-13T15:02:42.126Z,3.07
2019-05-13T15:05:12.142Z,2.23
2019-05-13T15:07:42.676Z,4.20
2019-05-13T15:10:13.709Z,2.37
2019-05-13T15:12:44.030Z,3.40
2019-05-13T15:15:14.530Z,3.37
2019-05-13T15:17:43.724Z,3.77
2019-05-13T15:20:14.198Z,5.23
2019-05-13T15:22:43.966Z,2.77
2019-05-13T15:25:15.733Z,3.33
2019-05-13T15:27:52.541Z,3.23
2019-05-13T15:30:22.371Z,2.90
2019-05-13T15:32:53.135Z,2.97
2019-05-13T15:35:22.295Z,5.83
2019-05-13T15:37:53.857Z,2.67
2019-05-13T15:40:23.375Z,3.00
2019-05-13T15:42:53.636Z,2.67
2019-05-13T15:45:23.923Z,3.30
2019-05-13T15:47:54.144Z,3.30
2019-05-13T15:50:23.303Z,3.10
2019-05-13T15:52:52.522Z,2.70
2019-05-13T15:55:21.966Z,2.73
2019-05-13T15:57:51.904Z,2.33
2019-05-13T16:00:22.705Z,3.63
2019-05-13T16:02:52.329Z,2.23
2019-05-13T16:05:22.521Z,2.23
2019-05-13T16:07:52.382Z,3.70
2019-05-13T16:10:21.689Z,3.47
2019-05-13T16:12:51.807Z,2.33
2019-05-13T16:15:21.718Z,2.33
2019-05-13T16:17:53.015Z,3.97
2019-05-13T16:20:24.734Z,2.90
2019-05-13T16:22:57.318Z,5.23
2019-05-13T16:25:28.537Z,3.17
2019-05-13T16:28:01.609Z,1.87
2019-05-13T16:30:32.255Z,1.73
2019-05-13T16:33:02.968Z,2.57
2019-05-13T16:35:32.712Z,6.63
2019-05-13T16:38:03.375Z,2.33
2019-05-13T16:40:36.410Z,2.73
2019-05-13T16:43:04.057Z,5.90
2019-05-13T16:45:34.690Z,4.63
2019-05-13T16:48:06.686Z,3.50
2019-05-13T16:50:37.080Z,2.93
2019-05-13T16:53:06.597Z,3.00
2019-05-13T16:55:36.081Z,3.27
2019-05-13T16:58:05.266Z,5.03
2019-05-13T17:00:34.449Z,2.07
2019-05-13T17:03:03.646Z,3.67
2019-05-13T17:05:35.227Z,3.27
2019-05-13T17:08:05.488Z,3.33
2019-05-13T17:10:41.990Z,3.00
2019-05-13T17:13:15.988Z,2.23
2019-05-13T17:15:47.618Z,2.23
2019-05-13T17:18:18.031Z,2.57
2019-05-13T17:20:49.105Z,1.37
2019-05-13T17:23:19.227Z,2.07
2019-05-13T17:25:52.062Z,1.33
2019-05-13T17:28:22.105Z,1.47
2019-05-13T17:30:54.989Z,2.90
2019-05-13T17:33:24.087Z,4.03
2019-05-13T17:35:53.277Z,2.67
2019-05-13T17:38:22.448Z,1.87
2019-05-13T17:40:53.809Z,1.93
2019-05-13T17:43:25.069Z,3.90
2019-05-13T17:45:58.238Z,3.23
2019-05-13T17:48:29.625Z,4.67
2019-05-13T17:51:01.863Z,3.70
2019-05-13T17:53:33.063Z,3.60
2019-05-13T17:56:03.757Z,4.17
2019-05-13T17:58:34.550Z,3.33
2019-05-13T18:01:04.064Z,1.80
2019-05-13T18:03:33.238Z,4.47
2019-05-13T18:06:03.293Z,4.40
2019-05-13T18:08:34.582Z,3.90
2019-05-13T18:11:04.395Z,2.50
2019-05-13T18:13:33.594Z,3.23
2019-05-13T18:16:02.909Z,3.73
2019-05-13T18:18:43.078Z,2.43
2019-05-13T18:21:03.272Z,2.40
2019-05-13T18:23:32.442Z,3.00
2019-05-13T18:26:02.489Z,2.60
2019-05-13T18:28:32.545Z,5.43
2019-05-13T18:31:01.989Z,3.87
2019-05-13T18:33:31.884Z,3.03
2019-05-13T18:36:02.058Z,2.83
2019-05-13T18:38:35.935Z,3.37
2019-05-13T18:41:09.322Z,2.90
2019-05-13T18:43:41.379Z,3.07
2019-05-13T18:46:12.369Z,2.67
2019-05-13T18:48:57.739Z,2.07
2019-05-13T18:51:27.187Z,7.43
2019-05-13T18:54:01.147Z,3.00
2019-05-13T18:56:32.317Z,2.97
2019-05-13T18:59:03.032Z,4.73
2019-05-13T19:01:32.499Z,3.77
2019-05-13T19:04:03.221Z,2.40
2019-05-13T19:06:33.623Z,2.50
2019-05-13T19:09:05.961Z,4.13
2019-05-13T19:11:36.142Z,2.30
2019-05-13T19:14:08.123Z,5.33
2019-05-13T19:16:42.098Z,4.17
2019-05-13T19:19:16.242Z,3.03
2019-05-13T19:21:43.526Z,3.00
2019-05-13T19:24:13.413Z,3.90
2019-05-13T19:26:44.083Z,3.70
2019-05-13T19:29:13.252Z,3.63
2019-05-13T19:31:44.915Z,3.30
2019-05-13T19:34:17.563Z,4.40
2019-05-13T19:36:51.732Z,3.30
2019-05-13T19:39:31.201Z,3.70
2019-05-13T19:42:02.795Z,2.80
2019-05-13T19:44:35.209Z,5.13
2019-05-13T19:47:04.418Z,4.90
2019-05-13T19:49:37.162Z,4.57
2019-05-13T19:52:11.844Z,3.67
2019-05-13T19:54:42.786Z,3.87
2019-05-13T19:57:21.121Z,3.63
2019-05-13T19:59:54.703Z,3.73
2019-05-13T20:02:25.882Z,4.47
2019-05-13T20:05:01.232Z,2.93
2019-05-13T20:07:33.823Z,5.33
2019-05-13T20:10:05.000Z,2.17
2019-05-13T20:12:41.962Z,3.10
2019-05-13T20:15:17.640Z,4.23
2019-05-13T20:17:52.132Z,1.57
2019-05-13T20:20:23.603Z,3.07
2019-05-13T20:22:57.386Z,5.23
2019-05-13T20:25:31.191Z,3.10
2019-05-13T20:28:02.629Z,2.97
2019-05-13T20:30:32.730Z,3.13
2019-05-13T20:33:04.392Z,2.23
2019-05-13T20:35:35.098Z,3.20
2019-05-13T20:38:04.726Z,3.43
2019-05-13T20:40:34.245Z,4.97
2019-05-13T20:43:03.679Z,4.40
2019-05-13T20:45:33.874Z,4.00
2019-05-13T20:48:03.328Z,2.43
2019-05-13T20:50:33.679Z,3.97
2019-05-13T20:53:03.624Z,3.07
2019-05-13T20:55:36.557Z,2.93
2019-05-13T20:58:06.112Z,2.30
2019-05-13T21:00:35.306Z,3.53
2019-05-13T21:03:04.746Z,3.17
2019-05-13T21:05:36.017Z,2.60
2019-05-13T21:08:05.500Z,4.40
2019-05-13T21:10:46.213Z,4.73
2019-05-13T21:13:21.325Z,3.57
2019-05-13T21:15:52.031Z,3.40
2019-05-13T21:18:22.294Z,3.47
2019-05-13T21:20:53.915Z,6.67
2019-05-13T21:23:27.219Z,2.60
2019-05-13T21:26:01.855Z,3.53
2019-05-13T21:28:44.001Z,7.40
2019-05-13T21:31:17.380Z,2.60
2019-05-13T21:33:51.397Z,3.03
2019-05-13T21:36:22.683Z,4.57
2019-05-13T21:38:53.114Z,3.87
2019-05-13T21:41:26.738Z,6.80
2019-05-13T21:44:01.381Z,7.07
2019-05-13T21:46:31.808Z,3.83
2019-05-13T21:49:05.470Z,3.70
2019-05-13T21:51:41.976Z,6.63
2019-05-13T21:54:17.671Z,1.87
2019-05-13T21:56:51.603Z,3.57
2019-05-13T21:59:25.631Z,3.90
2019-05-13T22:01:58.171Z,3.83
2019-05-13T22:04:29.752Z,3.90
2019-05-13T22:07:02.412Z,2.77
2019-05-13T22:09:38.746Z,3.90
2019-05-13T22:12:12.977Z,5.80
2019-05-13T22:14:44.406Z,6.17
2019-05-13T22:17:16.758Z,2.67
2019-05-13T22:19:51.247Z,4.90
2019-05-13T22:22:22.097Z,4.17
2019-05-13T22:24:52.765Z,3.87
2019-05-13T22:27:24.095Z,3.60
2019-05-13T22:30:11.710Z,2.57
2019-05-13T22:32:47.252Z,3.87
2019-05-13T22:35:21.728Z,3.30
2019-05-13T22:38:01.753Z,4.10
2019-05-13T22:40:37.884Z,4.10
2019-05-13T22:43:12.173Z,3.27
2019-05-13T22:45:45.723Z,2.20
2019-05-13T22:48:22.263Z,5.53
2019-05-13T22:51:01.347Z,3.07
2019-05-13T22:53:32.114Z,3.97
2019-05-13T22:56:02.293Z,3.67
2019-05-13T22:58:33.045Z,2.40
2019-05-13T23:01:03.349Z,2.83
2019-05-13T23:03:33.123Z,3.70
2019-05-13T23:06:02.323Z,5.33
2019-05-13T23:08:32.454Z,5.07
2019-05-13T23:11:02.179Z,2.70
2019-05-13T23:13:31.590Z,5.33
2019-05-13T23:16:02.316Z,3.87
2019-05-13T23:18:31.913Z,3.27
2019-05-13T23:21:02.256Z,4.03
2019-05-13T23:23:31.891Z,3.60
2019-05-13T23:26:01.457Z,4.27
2019-05-13T23:28:32.298Z,6.63
2019-05-13T23:31:04.393Z,2.90
2019-05-13T23:33:33.932Z,3.80
2019-05-13T23:36:03.831Z,4.93
2019-05-13T23:38:33.305Z,5.83
2019-05-13T23:41:02.468Z,4.87
2019-05-13T23:43:31.954Z,3.13
2019-05-13T23:46:01.494Z,3.20
2019-05-13T23:48:32.079Z,5.47
2019-05-13T23:51:01.993Z,2.30
2019-05-13T23:53:31.918Z,5.30
2019-05-13T23:56:04.468Z,4.07
2019-05-13T23:58:36.089Z,2.90
